<?xml version="1.0" encoding="UTF-8" standalone="no" ?>
<gpx xmlns="http://www.topografix.com/GPX/1/1" xmlns:xsi="http://www.w3.org/2001/XMLSchema-instance" xsi:schemaLocation="http://www.topografix.com/GPX/1/1 http://www.topografix.com/GPX/1/1/gpx.xsd" version="1.1" creator="VisuGPX - https://www.visugpx.com">
  <metadata>
    <name>lac du jaunay, de Coex</name>
    <desc><![CDATA[Depart devant le O'Bel Bar, accueil maison par Patou!
Magnifique parcours de difficulté moyenne. [b]Attention aux usagers venant en sens inverse, il y a du monde et il vaut mieux maitriser le néerlandais pour héler![/b] Circuit varié, l'arrivée sur le lac commence par une descente dans un chemin creux; piste de bonne qualité type sentier rando avec qq singles engagés. Pas mal de variantes: boucles et sentiers à thèmes
[b]Attention[/b]: à km2 à 3 ; le parcours traverse un champ avec barbelés suivi d'un fossé bien creux; on evite le bitume mais peut etre pas le goudron et les plumes si le fermier veille!
A km 29.8 chemin sans issue]]></desc>
  </metadata>
  <trk>
    <name><![CDATA[coex jaunay]]></name>
    <trkseg>
      <trkpt lat="46.69402" lon="-1.75955">
        <ele>42</ele>
        <time>2013-07-23T10:00:19Z</time>
      </trkpt>
      <trkpt lat="46.69359" lon="-1.75942">
        <ele>35</ele>
        <time>2013-07-23T10:00:31Z</time>
      </trkpt>
      <trkpt lat="46.69322" lon="-1.75927">
        <ele>31</ele>
        <time>2013-07-23T10:00:44Z</time>
      </trkpt>
      <trkpt lat="46.69292" lon="-1.75906">
        <ele>27</ele>
        <time>2013-07-23T10:00:56Z</time>
      </trkpt>
      <trkpt lat="46.69258" lon="-1.75863">
        <ele>26</ele>
        <time>2013-07-23T10:01:10Z</time>
      </trkpt>
      <trkpt lat="46.69142" lon="-1.75663">
        <ele>41</ele>
        <time>2013-07-23T10:02:6Z</time>
      </trkpt>
      <trkpt lat="46.69086" lon="-1.75631">
        <ele>42</ele>
        <time>2013-07-23T10:02:23Z</time>
      </trkpt>
      <trkpt lat="46.69041" lon="-1.75623">
        <ele>44</ele>
        <time>2013-07-23T10:02:44Z</time>
      </trkpt>
      <trkpt lat="46.68988" lon="-1.75625">
        <ele>46</ele>
        <time>2013-07-23T10:03:6Z</time>
      </trkpt>
      <trkpt lat="46.68898" lon="-1.75595">
        <ele>46</ele>
        <time>2013-07-23T10:03:49Z</time>
      </trkpt>
      <trkpt lat="46.6884" lon="-1.75597">
        <ele>46</ele>
        <time>2013-07-23T10:04:5Z</time>
      </trkpt>
      <trkpt lat="46.68795" lon="-1.75616">
        <ele>47</ele>
        <time>2013-07-23T10:04:18Z</time>
      </trkpt>
      <trkpt lat="46.68745" lon="-1.75661">
        <ele>46</ele>
        <time>2013-07-23T10:04:35Z</time>
      </trkpt>
      <trkpt lat="46.68685" lon="-1.75698">
        <ele>45</ele>
        <time>2013-07-23T10:04:53Z</time>
      </trkpt>
      <trkpt lat="46.68602" lon="-1.75713">
        <ele>49</ele>
        <time>2013-07-23T10:05:17Z</time>
      </trkpt>
      <trkpt lat="46.68406" lon="-1.75794">
        <ele>51</ele>
        <time>2013-07-23T10:06:15Z</time>
      </trkpt>
      <trkpt lat="46.68376" lon="-1.75713">
        <ele>48</ele>
        <time>2013-07-23T10:06:37Z</time>
      </trkpt>
      <trkpt lat="46.68363" lon="-1.75638">
        <ele>49</ele>
        <time>2013-07-23T10:08:16Z</time>
      </trkpt>
      <trkpt lat="46.68273" lon="-1.75487">
        <ele>49</ele>
        <time>2013-07-23T10:08:49Z</time>
      </trkpt>
      <trkpt lat="46.68245" lon="-1.75425">
        <ele>47</ele>
        <time>2013-07-23T10:08:59Z</time>
      </trkpt>
      <trkpt lat="46.68239" lon="-1.75397">
        <ele>47</ele>
        <time>2013-07-23T10:09:3Z</time>
      </trkpt>
      <trkpt lat="46.68243" lon="-1.75371">
        <ele>48</ele>
        <time>2013-07-23T10:09:7Z</time>
      </trkpt>
      <trkpt lat="46.68282" lon="-1.7529">
        <ele>51</ele>
        <time>2013-07-23T10:09:23Z</time>
      </trkpt>
      <trkpt lat="46.68363" lon="-1.75161">
        <ele>52</ele>
        <time>2013-07-23T10:09:53Z</time>
      </trkpt>
      <trkpt lat="46.684" lon="-1.75118">
        <ele>54</ele>
        <time>2013-07-23T10:10:7Z</time>
      </trkpt>
      <trkpt lat="46.68608" lon="-1.74925">
        <ele>48</ele>
        <time>2013-07-23T10:10:59Z</time>
      </trkpt>
      <trkpt lat="46.68629" lon="-1.74878">
        <ele>47</ele>
        <time>2013-07-23T10:11:6Z</time>
      </trkpt>
      <trkpt lat="46.68722" lon="-1.74764">
        <ele>52</ele>
        <time>2013-07-23T10:11:46Z</time>
      </trkpt>
      <trkpt lat="46.68606" lon="-1.74676">
        <ele>49</ele>
        <time>2013-07-23T10:12:17Z</time>
      </trkpt>
      <trkpt lat="46.68522" lon="-1.74629">
        <ele>49</ele>
        <time>2013-07-23T10:12:34Z</time>
      </trkpt>
      <trkpt lat="46.68423" lon="-1.74599">
        <ele>49</ele>
        <time>2013-07-23T10:14:55Z</time>
      </trkpt>
      <trkpt lat="46.68385" lon="-1.74569">
        <ele>50</ele>
        <time>2013-07-23T10:15:12Z</time>
      </trkpt>
      <trkpt lat="46.68333" lon="-1.74543">
        <ele>50</ele>
        <time>2013-07-23T10:15:29Z</time>
      </trkpt>
      <trkpt lat="46.68247" lon="-1.74449">
        <ele>51</ele>
        <time>2013-07-23T10:16:0Z</time>
      </trkpt>
      <trkpt lat="46.68179" lon="-1.74419">
        <ele>53</ele>
        <time>2013-07-23T10:16:21Z</time>
      </trkpt>
      <trkpt lat="46.68153" lon="-1.74429">
        <ele>53</ele>
        <time>2013-07-23T10:16:30Z</time>
      </trkpt>
      <trkpt lat="46.68147" lon="-1.74447">
        <ele>52</ele>
        <time>2013-07-23T10:16:35Z</time>
      </trkpt>
      <trkpt lat="46.68149" lon="-1.74524">
        <ele>53</ele>
        <time>2013-07-23T10:17:46Z</time>
      </trkpt>
      <trkpt lat="46.68147" lon="-1.74515">
        <ele>53</ele>
        <time>2013-07-23T10:18:57Z</time>
      </trkpt>
      <trkpt lat="46.68136" lon="-1.7452">
        <ele>52</ele>
        <time>2013-07-23T10:19:46Z</time>
      </trkpt>
      <trkpt lat="46.68095" lon="-1.74505">
        <ele>52</ele>
        <time>2013-07-23T10:21:13Z</time>
      </trkpt>
      <trkpt lat="46.67966" lon="-1.74479">
        <ele>54</ele>
        <time>2013-07-23T10:22:6Z</time>
      </trkpt>
      <trkpt lat="46.67908" lon="-1.74475">
        <ele>55</ele>
        <time>2013-07-23T10:22:26Z</time>
      </trkpt>
      <trkpt lat="46.67878" lon="-1.74496">
        <ele>55</ele>
        <time>2013-07-23T10:23:55Z</time>
      </trkpt>
      <trkpt lat="46.6782" lon="-1.74513">
        <ele>53</ele>
        <time>2013-07-23T10:24:13Z</time>
      </trkpt>
      <trkpt lat="46.67739" lon="-1.74524">
        <ele>56</ele>
        <time>2013-07-23T10:24:37Z</time>
      </trkpt>
      <trkpt lat="46.67587" lon="-1.745">
        <ele>56</ele>
        <time>2013-07-23T10:25:24Z</time>
      </trkpt>
      <trkpt lat="46.67537" lon="-1.74477">
        <ele>56</ele>
        <time>2013-07-23T10:25:42Z</time>
      </trkpt>
      <trkpt lat="46.67554" lon="-1.7432">
        <ele>54</ele>
        <time>2013-07-23T10:26:11Z</time>
      </trkpt>
      <trkpt lat="46.67557" lon="-1.74153">
        <ele>54</ele>
        <time>2013-07-23T10:26:44Z</time>
      </trkpt>
      <trkpt lat="46.67584" lon="-1.73957">
        <ele>53</ele>
        <time>2013-07-23T10:27:15Z</time>
      </trkpt>
      <trkpt lat="46.67576" lon="-1.73934">
        <ele>54</ele>
        <time>2013-07-23T10:27:20Z</time>
      </trkpt>
      <trkpt lat="46.67475" lon="-1.7388">
        <ele>56</ele>
        <time>2013-07-23T10:27:44Z</time>
      </trkpt>
      <trkpt lat="46.67303" lon="-1.73807">
        <ele>55</ele>
        <time>2013-07-23T10:28:22Z</time>
      </trkpt>
      <trkpt lat="46.67275" lon="-1.73811">
        <ele>55</ele>
        <time>2013-07-23T10:28:29Z</time>
      </trkpt>
      <trkpt lat="46.67301" lon="-1.73713">
        <ele>53</ele>
        <time>2013-07-23T10:28:49Z</time>
      </trkpt>
      <trkpt lat="46.67299" lon="-1.73616">
        <ele>50</ele>
        <time>2013-07-23T10:29:0Z</time>
      </trkpt>
      <trkpt lat="46.67271" lon="-1.73511">
        <ele>46</ele>
        <time>2013-07-23T10:29:11Z</time>
      </trkpt>
      <trkpt lat="46.67271" lon="-1.73457">
        <ele>46</ele>
        <time>2013-07-23T10:29:23Z</time>
      </trkpt>
      <trkpt lat="46.67215" lon="-1.7359">
        <ele>33</ele>
        <time>2013-07-23T10:30:12Z</time>
      </trkpt>
      <trkpt lat="46.67213" lon="-1.73612">
        <ele>32</ele>
        <time>2013-07-23T10:30:17Z</time>
      </trkpt>
      <trkpt lat="46.67183" lon="-1.73689">
        <ele>27</ele>
        <time>2013-07-23T10:31:37Z</time>
      </trkpt>
      <trkpt lat="46.67183" lon="-1.7364">
        <ele>27</ele>
        <time>2013-07-23T10:32:1Z</time>
      </trkpt>
      <trkpt lat="46.67194" lon="-1.73618">
        <ele>26</ele>
        <time>2013-07-23T10:32:26Z</time>
      </trkpt>
      <trkpt lat="46.67179" lon="-1.73567">
        <ele>25</ele>
        <time>2013-07-23T10:32:38Z</time>
      </trkpt>
      <trkpt lat="46.67095" lon="-1.73477">
        <ele>20</ele>
        <time>2013-07-23T10:33:53Z</time>
      </trkpt>
      <trkpt lat="46.67057" lon="-1.73464">
        <ele>19</ele>
        <time>2013-07-23T10:34:4Z</time>
      </trkpt>
      <trkpt lat="46.67027" lon="-1.73442">
        <ele>17</ele>
        <time>2013-07-23T10:34:15Z</time>
      </trkpt>
      <trkpt lat="46.66861" lon="-1.73275">
        <ele>-9</ele>
        <time>2013-07-23T10:35:19Z</time>
      </trkpt>
      <trkpt lat="46.66806" lon="-1.73174">
        <ele>-5</ele>
        <time>2013-07-23T10:35:46Z</time>
      </trkpt>
      <trkpt lat="46.66788" lon="-1.73082">
        <ele>4</ele>
        <time>2013-07-23T10:36:15Z</time>
      </trkpt>
      <trkpt lat="46.66773" lon="-1.73058">
        <ele>6</ele>
        <time>2013-07-23T10:36:21Z</time>
      </trkpt>
      <trkpt lat="46.66698" lon="-1.73091">
        <ele>7</ele>
        <time>2013-07-23T10:36:41Z</time>
      </trkpt>
      <trkpt lat="46.66675" lon="-1.73086">
        <ele>34</ele>
        <time>2013-07-23T10:50:48Z</time>
      </trkpt>
      <trkpt lat="46.66675" lon="-1.72977">
        <ele>34</ele>
        <time>2013-07-23T10:51:17Z</time>
      </trkpt>
      <trkpt lat="46.66664" lon="-1.72906">
        <ele>36</ele>
        <time>2013-07-23T10:51:30Z</time>
      </trkpt>
      <trkpt lat="46.66666" lon="-1.72842">
        <ele>40</ele>
        <time>2013-07-23T10:51:44Z</time>
      </trkpt>
      <trkpt lat="46.66655" lon="-1.72784">
        <ele>44</ele>
        <time>2013-07-23T10:51:57Z</time>
      </trkpt>
      <trkpt lat="46.66627" lon="-1.72745">
        <ele>47</ele>
        <time>2013-07-23T10:52:13Z</time>
      </trkpt>
      <trkpt lat="46.66542" lon="-1.7276">
        <ele>46</ele>
        <time>2013-07-23T10:52:58Z</time>
      </trkpt>
      <trkpt lat="46.66473" lon="-1.72754">
        <ele>41</ele>
        <time>2013-07-23T10:53:30Z</time>
      </trkpt>
      <trkpt lat="46.66376" lon="-1.72728">
        <ele>36</ele>
        <time>2013-07-23T10:54:30Z</time>
      </trkpt>
      <trkpt lat="46.66333" lon="-1.72736">
        <ele>34</ele>
        <time>2013-07-23T10:54:51Z</time>
      </trkpt>
      <trkpt lat="46.66265" lon="-1.72736">
        <ele>41</ele>
        <time>2013-07-23T10:55:17Z</time>
      </trkpt>
      <trkpt lat="46.66258" lon="-1.72747">
        <ele>41</ele>
        <time>2013-07-23T10:55:21Z</time>
      </trkpt>
      <trkpt lat="46.66269" lon="-1.72923">
        <ele>43</ele>
        <time>2013-07-23T10:56:5Z</time>
      </trkpt>
      <trkpt lat="46.66282" lon="-1.72985">
        <ele>43</ele>
        <time>2013-07-23T10:56:23Z</time>
      </trkpt>
      <trkpt lat="46.66286" lon="-1.73054">
        <ele>43</ele>
        <time>2013-07-23T10:56:42Z</time>
      </trkpt>
      <trkpt lat="46.66269" lon="-1.73084">
        <ele>44</ele>
        <time>2013-07-23T10:56:54Z</time>
      </trkpt>
      <trkpt lat="46.66211" lon="-1.73125">
        <ele>46</ele>
        <time>2013-07-23T10:57:13Z</time>
      </trkpt>
      <trkpt lat="46.66089" lon="-1.73166">
        <ele>50</ele>
        <time>2013-07-23T10:57:44Z</time>
      </trkpt>
      <trkpt lat="46.66085" lon="-1.73194">
        <ele>49</ele>
        <time>2013-07-23T10:57:50Z</time>
      </trkpt>
      <trkpt lat="46.66108" lon="-1.73464">
        <ele>42</ele>
        <time>2013-07-23T10:58:26Z</time>
      </trkpt>
      <trkpt lat="46.66106" lon="-1.73507">
        <ele>41</ele>
        <time>2013-07-23T10:58:31Z</time>
      </trkpt>
      <trkpt lat="46.6608" lon="-1.73636">
        <ele>36</ele>
        <time>2013-07-23T10:58:44Z</time>
      </trkpt>
      <trkpt lat="46.66125" lon="-1.73837">
        <ele>30</ele>
        <time>2013-07-23T10:59:8Z</time>
      </trkpt>
      <trkpt lat="46.66142" lon="-1.73992">
        <ele>23</ele>
        <time>2013-07-23T10:59:25Z</time>
      </trkpt>
      <trkpt lat="46.66149" lon="-1.74129">
        <ele>17</ele>
        <time>2013-07-23T10:59:42Z</time>
      </trkpt>
      <trkpt lat="46.66127" lon="-1.74382">
        <ele>9</ele>
        <time>2013-07-23T11:00:14Z</time>
      </trkpt>
      <trkpt lat="46.66151" lon="-1.74543">
        <ele>4</ele>
        <time>2013-07-23T11:00:34Z</time>
      </trkpt>
      <trkpt lat="46.6619" lon="-1.74685">
        <ele>5</ele>
        <time>2013-07-23T11:00:53Z</time>
      </trkpt>
      <trkpt lat="46.66218" lon="-1.74749">
        <ele>7</ele>
        <time>2013-07-23T11:01:7Z</time>
      </trkpt>
      <trkpt lat="46.66207" lon="-1.74773">
        <ele>7</ele>
        <time>2013-07-23T11:01:16Z</time>
      </trkpt>
      <trkpt lat="46.66205" lon="-1.74794">
        <ele>8</ele>
        <time>2013-07-23T11:01:21Z</time>
      </trkpt>
      <trkpt lat="46.66218" lon="-1.74801">
        <ele>8</ele>
        <time>2013-07-23T11:01:27Z</time>
      </trkpt>
      <trkpt lat="46.6625" lon="-1.74762">
        <ele>12</ele>
        <time>2013-07-23T11:01:39Z</time>
      </trkpt>
      <trkpt lat="46.66252" lon="-1.74768">
        <ele>12</ele>
        <time>2013-07-23T11:01:43Z</time>
      </trkpt>
      <trkpt lat="46.66196" lon="-1.7482">
        <ele>15</ele>
        <time>2013-07-23T11:02:6Z</time>
      </trkpt>
      <trkpt lat="46.66188" lon="-1.74852">
        <ele>15</ele>
        <time>2013-07-23T11:02:21Z</time>
      </trkpt>
      <trkpt lat="46.66162" lon="-1.74811">
        <ele>15</ele>
        <time>2013-07-23T11:02:50Z</time>
      </trkpt>
      <trkpt lat="46.66147" lon="-1.74831">
        <ele>15</ele>
        <time>2013-07-23T11:06:49Z</time>
      </trkpt>
      <trkpt lat="46.66087" lon="-1.74814">
        <ele>20</ele>
        <time>2013-07-23T11:07:19Z</time>
      </trkpt>
      <trkpt lat="46.6605" lon="-1.74794">
        <ele>24</ele>
        <time>2013-07-23T11:07:35Z</time>
      </trkpt>
      <trkpt lat="46.65906" lon="-1.74899">
        <ele>28</ele>
        <time>2013-07-23T11:08:50Z</time>
      </trkpt>
      <trkpt lat="46.65881" lon="-1.74914">
        <ele>29</ele>
        <time>2013-07-23T11:09:5Z</time>
      </trkpt>
      <trkpt lat="46.65851" lon="-1.74921">
        <ele>26</ele>
        <time>2013-07-23T11:09:20Z</time>
      </trkpt>
      <trkpt lat="46.65821" lon="-1.74899">
        <ele>23</ele>
        <time>2013-07-23T11:09:31Z</time>
      </trkpt>
      <trkpt lat="46.65793" lon="-1.74859">
        <ele>22</ele>
        <time>2013-07-23T11:09:44Z</time>
      </trkpt>
      <trkpt lat="46.65756" lon="-1.7485">
        <ele>21</ele>
        <time>2013-07-23T11:09:55Z</time>
      </trkpt>
      <trkpt lat="46.65713" lon="-1.74854">
        <ele>19</ele>
        <time>2013-07-23T11:10:8Z</time>
      </trkpt>
      <trkpt lat="46.6569" lon="-1.74889">
        <ele>15</ele>
        <time>2013-07-23T11:10:21Z</time>
      </trkpt>
      <trkpt lat="46.6564" lon="-1.75013">
        <ele>16</ele>
        <time>2013-07-23T11:11:7Z</time>
      </trkpt>
      <trkpt lat="46.65623" lon="-1.75037">
        <ele>19</ele>
        <time>2013-07-23T11:11:18Z</time>
      </trkpt>
      <trkpt lat="46.65458" lon="-1.75032">
        <ele>31</ele>
        <time>2013-07-23T11:12:27Z</time>
      </trkpt>
      <trkpt lat="46.65437" lon="-1.75045">
        <ele>36</ele>
        <time>2013-07-23T11:12:43Z</time>
      </trkpt>
      <trkpt lat="46.65349" lon="-1.75067">
        <ele>41</ele>
        <time>2013-07-23T11:13:20Z</time>
      </trkpt>
      <trkpt lat="46.65291" lon="-1.7509">
        <ele>36</ele>
        <time>2013-07-23T11:13:44Z</time>
      </trkpt>
      <trkpt lat="46.65295" lon="-1.75103">
        <ele>36</ele>
        <time>2013-07-23T11:13:49Z</time>
      </trkpt>
      <trkpt lat="46.65342" lon="-1.75161">
        <ele>37</ele>
        <time>2013-07-23T11:14:7Z</time>
      </trkpt>
      <trkpt lat="46.6537" lon="-1.75221">
        <ele>30</ele>
        <time>2013-07-23T11:14:16Z</time>
      </trkpt>
      <trkpt lat="46.65368" lon="-1.75341">
        <ele>24</ele>
        <time>2013-07-23T11:14:26Z</time>
      </trkpt>
      <trkpt lat="46.65359" lon="-1.75361">
        <ele>24</ele>
        <time>2013-07-23T11:14:28Z</time>
      </trkpt>
      <trkpt lat="46.65366" lon="-1.75406">
        <ele>20</ele>
        <time>2013-07-23T11:14:36Z</time>
      </trkpt>
      <trkpt lat="46.65398" lon="-1.75483">
        <ele>15</ele>
        <time>2013-07-23T11:14:48Z</time>
      </trkpt>
      <trkpt lat="46.65424" lon="-1.75522">
        <ele>11</ele>
        <time>2013-07-23T11:14:52Z</time>
      </trkpt>
      <trkpt lat="46.65445" lon="-1.7559">
        <ele>5</ele>
        <time>2013-07-23T11:15:1Z</time>
      </trkpt>
      <trkpt lat="46.65494" lon="-1.75644">
        <ele>4</ele>
        <time>2013-07-23T11:15:23Z</time>
      </trkpt>
      <trkpt lat="46.65533" lon="-1.75631">
        <ele>10</ele>
        <time>2013-07-23T11:15:36Z</time>
      </trkpt>
      <trkpt lat="46.65587" lon="-1.75599">
        <ele>15</ele>
        <time>2013-07-23T11:15:50Z</time>
      </trkpt>
      <trkpt lat="46.65597" lon="-1.75601">
        <ele>16</ele>
        <time>2013-07-23T11:15:53Z</time>
      </trkpt>
      <trkpt lat="46.65645" lon="-1.75584">
        <ele>23</ele>
        <time>2013-07-23T11:16:5Z</time>
      </trkpt>
      <trkpt lat="46.65681" lon="-1.75618">
        <ele>31</ele>
        <time>2013-07-23T11:16:16Z</time>
      </trkpt>
      <trkpt lat="46.65821" lon="-1.75665">
        <ele>25</ele>
        <time>2013-07-23T11:17:8Z</time>
      </trkpt>
      <trkpt lat="46.65879" lon="-1.75663">
        <ele>22</ele>
        <time>2013-07-23T11:17:23Z</time>
      </trkpt>
      <trkpt lat="46.65909" lon="-1.75653">
        <ele>21</ele>
        <time>2013-07-23T11:17:32Z</time>
      </trkpt>
      <trkpt lat="46.65975" lon="-1.75653">
        <ele>17</ele>
        <time>2013-07-23T11:17:45Z</time>
      </trkpt>
      <trkpt lat="46.66042" lon="-1.75665">
        <ele>13</ele>
        <time>2013-07-23T11:18:3Z</time>
      </trkpt>
      <trkpt lat="46.66072" lon="-1.75698">
        <ele>13</ele>
        <time>2013-07-23T11:18:13Z</time>
      </trkpt>
      <trkpt lat="46.66112" lon="-1.75758">
        <ele>13</ele>
        <time>2013-07-23T11:18:31Z</time>
      </trkpt>
      <trkpt lat="46.66157" lon="-1.7579">
        <ele>13</ele>
        <time>2013-07-23T11:18:45Z</time>
      </trkpt>
      <trkpt lat="46.66205" lon="-1.7579">
        <ele>12</ele>
        <time>2013-07-23T11:18:58Z</time>
      </trkpt>
      <trkpt lat="46.66239" lon="-1.75884">
        <ele>12</ele>
        <time>2013-07-23T11:19:20Z</time>
      </trkpt>
      <trkpt lat="46.66207" lon="-1.7594">
        <ele>11</ele>
        <time>2013-07-23T11:19:36Z</time>
      </trkpt>
      <trkpt lat="46.66194" lon="-1.75987">
        <ele>11</ele>
        <time>2013-07-23T11:19:43Z</time>
      </trkpt>
      <trkpt lat="46.6613" lon="-1.76075">
        <ele>10</ele>
        <time>2013-07-23T11:20:8Z</time>
      </trkpt>
      <trkpt lat="46.66117" lon="-1.76092">
        <ele>11</ele>
        <time>2013-07-23T11:20:12Z</time>
      </trkpt>
      <trkpt lat="46.66022" lon="-1.76161">
        <ele>17</ele>
        <time>2013-07-23T11:20:45Z</time>
      </trkpt>
      <trkpt lat="46.66001" lon="-1.76195">
        <ele>17</ele>
        <time>2013-07-23T11:21:27Z</time>
      </trkpt>
      <trkpt lat="46.65984" lon="-1.76213">
        <ele>19</ele>
        <time>2013-07-23T11:23:4Z</time>
      </trkpt>
      <trkpt lat="46.65964" lon="-1.76247">
        <ele>23</ele>
        <time>2013-07-23T11:23:22Z</time>
      </trkpt>
      <trkpt lat="46.65941" lon="-1.76318">
        <ele>32</ele>
        <time>2013-07-23T11:23:49Z</time>
      </trkpt>
      <trkpt lat="46.65921" lon="-1.76406">
        <ele>38</ele>
        <time>2013-07-23T11:24:8Z</time>
      </trkpt>
      <trkpt lat="46.65928" lon="-1.7661">
        <ele>20</ele>
        <time>2013-07-23T11:24:38Z</time>
      </trkpt>
      <trkpt lat="46.65924" lon="-1.76633">
        <ele>17</ele>
        <time>2013-07-23T11:24:42Z</time>
      </trkpt>
      <trkpt lat="46.65894" lon="-1.7665">
        <ele>12</ele>
        <time>2013-07-23T11:24:49Z</time>
      </trkpt>
      <trkpt lat="46.65885" lon="-1.76689">
        <ele>12</ele>
        <time>2013-07-23T11:25:12Z</time>
      </trkpt>
      <trkpt lat="46.65909" lon="-1.76713">
        <ele>15</ele>
        <time>2013-07-23T11:25:22Z</time>
      </trkpt>
      <trkpt lat="46.6593" lon="-1.76811">
        <ele>16</ele>
        <time>2013-07-23T11:25:44Z</time>
      </trkpt>
      <trkpt lat="46.6593" lon="-1.76846">
        <ele>20</ele>
        <time>2013-07-23T11:25:57Z</time>
      </trkpt>
      <trkpt lat="46.65947" lon="-1.76882">
        <ele>20</ele>
        <time>2013-07-23T11:26:6Z</time>
      </trkpt>
      <trkpt lat="46.65956" lon="-1.76934">
        <ele>18</ele>
        <time>2013-07-23T11:26:15Z</time>
      </trkpt>
      <trkpt lat="46.65947" lon="-1.77002">
        <ele>14</ele>
        <time>2013-07-23T11:26:27Z</time>
      </trkpt>
      <trkpt lat="46.65973" lon="-1.77122">
        <ele>9</ele>
        <time>2013-07-23T11:26:55Z</time>
      </trkpt>
      <trkpt lat="46.65967" lon="-1.77238">
        <ele>6</ele>
        <time>2013-07-23T11:27:23Z</time>
      </trkpt>
      <trkpt lat="46.65921" lon="-1.77393">
        <ele>1</ele>
        <time>2013-07-23T11:27:53Z</time>
      </trkpt>
      <trkpt lat="46.65891" lon="-1.77534">
        <ele>2</ele>
        <time>2013-07-23T11:28:18Z</time>
      </trkpt>
      <trkpt lat="46.6587" lon="-1.77579">
        <ele>4</ele>
        <time>2013-07-23T11:28:29Z</time>
      </trkpt>
      <trkpt lat="46.65806" lon="-1.7756">
        <ele>5</ele>
        <time>2013-07-23T11:28:49Z</time>
      </trkpt>
      <trkpt lat="46.65756" lon="-1.77564">
        <ele>4</ele>
        <time>2013-07-23T11:29:3Z</time>
      </trkpt>
      <trkpt lat="46.65752" lon="-1.77582">
        <ele>4</ele>
        <time>2013-07-23T11:29:7Z</time>
      </trkpt>
      <trkpt lat="46.65793" lon="-1.77627">
        <ele>7</ele>
        <time>2013-07-23T11:38:56Z</time>
      </trkpt>
      <trkpt lat="46.65861" lon="-1.77672">
        <ele>6</ele>
        <time>2013-07-23T11:39:15Z</time>
      </trkpt>
      <trkpt lat="46.65891" lon="-1.77704">
        <ele>7</ele>
        <time>2013-07-23T11:39:26Z</time>
      </trkpt>
      <trkpt lat="46.65889" lon="-1.77837">
        <ele>16</ele>
        <time>2013-07-23T11:39:59Z</time>
      </trkpt>
      <trkpt lat="46.65896" lon="-1.77873">
        <ele>15</ele>
        <time>2013-07-23T11:40:4Z</time>
      </trkpt>
      <trkpt lat="46.65926" lon="-1.77931">
        <ele>11</ele>
        <time>2013-07-23T11:40:14Z</time>
      </trkpt>
      <trkpt lat="46.65943" lon="-1.77985">
        <ele>9</ele>
        <time>2013-07-23T11:40:21Z</time>
      </trkpt>
      <trkpt lat="46.65936" lon="-1.77998">
        <ele>9</ele>
        <time>2013-07-23T11:40:25Z</time>
      </trkpt>
      <trkpt lat="46.65921" lon="-1.78004">
        <ele>10</ele>
        <time>2013-07-23T11:40:31Z</time>
      </trkpt>
      <trkpt lat="46.65917" lon="-1.78026">
        <ele>8</ele>
        <time>2013-07-23T11:40:36Z</time>
      </trkpt>
      <trkpt lat="46.65936" lon="-1.78092">
        <ele>9</ele>
        <time>2013-07-23T11:40:50Z</time>
      </trkpt>
      <trkpt lat="46.65947" lon="-1.78174">
        <ele>8</ele>
        <time>2013-07-23T11:41:7Z</time>
      </trkpt>
      <trkpt lat="46.65919" lon="-1.78298">
        <ele>2</ele>
        <time>2013-07-23T11:41:36Z</time>
      </trkpt>
      <trkpt lat="46.6584" lon="-1.785">
        <ele>4</ele>
        <time>2013-07-23T11:42:24Z</time>
      </trkpt>
      <trkpt lat="46.65917" lon="-1.78567">
        <ele>7</ele>
        <time>2013-07-23T11:43:20Z</time>
      </trkpt>
      <trkpt lat="46.65967" lon="-1.78599">
        <ele>7</ele>
        <time>2013-07-23T11:43:51Z</time>
      </trkpt>
      <trkpt lat="46.6599" lon="-1.78567">
        <ele>10</ele>
        <time>2013-07-23T11:44:14Z</time>
      </trkpt>
      <trkpt lat="46.66024" lon="-1.78489">
        <ele>14</ele>
        <time>2013-07-23T11:46:9Z</time>
      </trkpt>
      <trkpt lat="46.66042" lon="-1.78487">
        <ele>17</ele>
        <time>2013-07-23T11:46:23Z</time>
      </trkpt>
      <trkpt lat="46.66048" lon="-1.78453">
        <ele>22</ele>
        <time>2013-07-23T11:46:38Z</time>
      </trkpt>
      <trkpt lat="46.66087" lon="-1.78388">
        <ele>29</ele>
        <time>2013-07-23T11:47:25Z</time>
      </trkpt>
      <trkpt lat="46.66097" lon="-1.78266">
        <ele>25</ele>
        <time>2013-07-23T11:49:40Z</time>
      </trkpt>
      <trkpt lat="46.66095" lon="-1.7829">
        <ele>24</ele>
        <time>2013-07-23T11:50:8Z</time>
      </trkpt>
      <trkpt lat="46.6611" lon="-1.7823">
        <ele>26</ele>
        <time>2013-07-23T11:51:21Z</time>
      </trkpt>
      <trkpt lat="46.66112" lon="-1.78032">
        <ele>25</ele>
        <time>2013-07-23T11:53:48Z</time>
      </trkpt>
      <trkpt lat="46.6608" lon="-1.77987">
        <ele>19</ele>
        <time>2013-07-23T11:55:17Z</time>
      </trkpt>
      <trkpt lat="46.66078" lon="-1.77964">
        <ele>19</ele>
        <time>2013-07-23T11:55:25Z</time>
      </trkpt>
      <trkpt lat="46.66076" lon="-1.77983">
        <ele>18</ele>
        <time>2013-07-23T11:55:44Z</time>
      </trkpt>
      <trkpt lat="46.66052" lon="-1.77901">
        <ele>16</ele>
        <time>2013-07-23T11:56:4Z</time>
      </trkpt>
      <trkpt lat="46.66037" lon="-1.7782">
        <ele>15</ele>
        <time>2013-07-23T11:56:14Z</time>
      </trkpt>
      <trkpt lat="46.66057" lon="-1.77745">
        <ele>10</ele>
        <time>2013-07-23T11:56:27Z</time>
      </trkpt>
      <trkpt lat="46.66054" lon="-1.77687">
        <ele>6</ele>
        <time>2013-07-23T11:56:40Z</time>
      </trkpt>
      <trkpt lat="46.6607" lon="-1.77571">
        <ele>5</ele>
        <time>2013-07-23T11:57:3Z</time>
      </trkpt>
      <trkpt lat="46.66082" lon="-1.77522">
        <ele>4</ele>
        <time>2013-07-23T11:57:13Z</time>
      </trkpt>
      <trkpt lat="46.66104" lon="-1.77483">
        <ele>7</ele>
        <time>2013-07-23T11:57:28Z</time>
      </trkpt>
      <trkpt lat="46.66097" lon="-1.77449">
        <ele>9</ele>
        <time>2013-07-23T11:57:36Z</time>
      </trkpt>
      <trkpt lat="46.6611" lon="-1.77393">
        <ele>10</ele>
        <time>2013-07-23T11:58:17Z</time>
      </trkpt>
      <trkpt lat="46.66134" lon="-1.77361">
        <ele>10</ele>
        <time>2013-07-23T12:01:15Z</time>
      </trkpt>
      <trkpt lat="46.66183" lon="-1.77333">
        <ele>8</ele>
        <time>2013-07-23T12:01:29Z</time>
      </trkpt>
      <trkpt lat="46.66194" lon="-1.77307">
        <ele>10</ele>
        <time>2013-07-23T12:01:45Z</time>
      </trkpt>
      <trkpt lat="46.66192" lon="-1.77298">
        <ele>12</ele>
        <time>2013-07-23T12:02:55Z</time>
      </trkpt>
      <trkpt lat="46.66153" lon="-1.77273">
        <ele>18</ele>
        <time>2013-07-23T12:03:56Z</time>
      </trkpt>
      <trkpt lat="46.66164" lon="-1.7718">
        <ele>24</ele>
        <time>2013-07-23T12:04:35Z</time>
      </trkpt>
      <trkpt lat="46.66155" lon="-1.77165">
        <ele>22</ele>
        <time>2013-07-23T12:04:42Z</time>
      </trkpt>
      <trkpt lat="46.66149" lon="-1.77174">
        <ele>22</ele>
        <time>2013-07-23T12:04:48Z</time>
      </trkpt>
      <trkpt lat="46.66147" lon="-1.7715">
        <ele>19</ele>
        <time>2013-07-23T12:05:4Z</time>
      </trkpt>
      <trkpt lat="46.66136" lon="-1.77159">
        <ele>20</ele>
        <time>2013-07-23T12:05:55Z</time>
      </trkpt>
      <trkpt lat="46.66121" lon="-1.77107">
        <ele>16</ele>
        <time>2013-07-23T12:06:8Z</time>
      </trkpt>
      <trkpt lat="46.66112" lon="-1.77002">
        <ele>11</ele>
        <time>2013-07-23T12:06:34Z</time>
      </trkpt>
      <trkpt lat="46.66121" lon="-1.76843">
        <ele>4</ele>
        <time>2013-07-23T12:07:21Z</time>
      </trkpt>
      <trkpt lat="46.66147" lon="-1.76693">
        <ele>8</ele>
        <time>2013-07-23T12:08:9Z</time>
      </trkpt>
      <trkpt lat="46.66177" lon="-1.7658">
        <ele>1</ele>
        <time>2013-07-23T12:08:26Z</time>
      </trkpt>
      <trkpt lat="46.66173" lon="-1.76549">
        <ele>15.5</ele>
        <time>2013-07-23T12:08:30Z</time>
      </trkpt>
      <trkpt lat="46.66179" lon="-1.76494">
        <ele>1</ele>
        <time>2013-07-23T12:08:42Z</time>
      </trkpt>
      <trkpt lat="46.66192" lon="-1.76451">
        <ele>2</ele>
        <time>2013-07-23T12:08:58Z</time>
      </trkpt>
      <trkpt lat="46.66267" lon="-1.76326">
        <ele>3</ele>
        <time>2013-07-23T12:09:40Z</time>
      </trkpt>
      <trkpt lat="46.66306" lon="-1.76281">
        <ele>3</ele>
        <time>2013-07-23T12:09:56Z</time>
      </trkpt>
      <trkpt lat="46.66458" lon="-1.76144">
        <ele>6</ele>
        <time>2013-07-23T12:10:50Z</time>
      </trkpt>
      <trkpt lat="46.66494" lon="-1.76092">
        <ele>6</ele>
        <time>2013-07-23T12:11:4Z</time>
      </trkpt>
      <trkpt lat="46.6652" lon="-1.76041">
        <ele>6</ele>
        <time>2013-07-23T12:11:17Z</time>
      </trkpt>
      <trkpt lat="46.66535" lon="-1.75925">
        <ele>8</ele>
        <time>2013-07-23T12:11:44Z</time>
      </trkpt>
      <trkpt lat="46.66507" lon="-1.75837">
        <ele>10</ele>
        <time>2013-07-23T12:12:1Z</time>
      </trkpt>
      <trkpt lat="46.6643" lon="-1.75661">
        <ele>13</ele>
        <time>2013-07-23T12:12:35Z</time>
      </trkpt>
      <trkpt lat="46.66439" lon="-1.75659">
        <ele>14</ele>
        <time>2013-07-23T12:12:42Z</time>
      </trkpt>
      <trkpt lat="46.66481" lon="-1.75745">
        <ele>10</ele>
        <time>2013-07-23T12:13:18Z</time>
      </trkpt>
      <trkpt lat="46.66503" lon="-1.75801">
        <ele>9</ele>
        <time>2013-07-23T12:13:30Z</time>
      </trkpt>
      <trkpt lat="46.66537" lon="-1.75861">
        <ele>4</ele>
        <time>2013-07-23T12:13:51Z</time>
      </trkpt>
      <trkpt lat="46.66548" lon="-1.75992">
        <ele>1</ele>
        <time>2013-07-23T12:17:18Z</time>
      </trkpt>
      <trkpt lat="46.66529" lon="-1.76122">
        <ele>41</ele>
        <time>2013-07-23T12:18:6Z</time>
      </trkpt>
      <trkpt lat="46.66516" lon="-1.76165">
        <ele>38</ele>
        <time>2013-07-23T12:18:25Z</time>
      </trkpt>
      <trkpt lat="46.66494" lon="-1.76215">
        <ele>39</ele>
        <time>2013-07-23T12:18:52Z</time>
      </trkpt>
      <trkpt lat="46.66464" lon="-1.76238">
        <ele>36</ele>
        <time>2013-07-23T12:19:14Z</time>
      </trkpt>
      <trkpt lat="46.66447" lon="-1.76271">
        <ele>37</ele>
        <time>2013-07-23T12:19:32Z</time>
      </trkpt>
      <trkpt lat="46.66458" lon="-1.76294">
        <ele>41</ele>
        <time>2013-07-23T12:19:49Z</time>
      </trkpt>
      <trkpt lat="46.66451" lon="-1.76298">
        <ele>41</ele>
        <time>2013-07-23T12:19:55Z</time>
      </trkpt>
      <trkpt lat="46.66451" lon="-1.76283">
        <ele>41</ele>
        <time>2013-07-23T12:20:2Z</time>
      </trkpt>
      <trkpt lat="46.66447" lon="-1.76305">
        <ele>44</ele>
        <time>2013-07-23T12:20:24Z</time>
      </trkpt>
      <trkpt lat="46.6643" lon="-1.76337">
        <ele>47</ele>
        <time>2013-07-23T12:20:39Z</time>
      </trkpt>
      <trkpt lat="46.66436" lon="-1.76313">
        <ele>48</ele>
        <time>2013-07-23T12:22:48Z</time>
      </trkpt>
      <trkpt lat="46.66488" lon="-1.76283">
        <ele>52</ele>
        <time>2013-07-23T12:23:19Z</time>
      </trkpt>
      <trkpt lat="46.66567" lon="-1.76208">
        <ele>57</ele>
        <time>2013-07-23T12:23:46Z</time>
      </trkpt>
      <trkpt lat="46.66574" lon="-1.76153">
        <ele>52</ele>
        <time>2013-07-23T12:23:54Z</time>
      </trkpt>
      <trkpt lat="46.66569" lon="-1.76022">
        <ele>39</ele>
        <time>2013-07-23T12:24:14Z</time>
      </trkpt>
      <trkpt lat="46.66544" lon="-1.76">
        <ele>35</ele>
        <time>2013-07-23T12:24:24Z</time>
      </trkpt>
      <trkpt lat="46.66535" lon="-1.75919">
        <ele>27</ele>
        <time>2013-07-23T12:24:45Z</time>
      </trkpt>
      <trkpt lat="46.66512" lon="-1.75841">
        <ele>22</ele>
        <time>2013-07-23T12:25:10Z</time>
      </trkpt>
      <trkpt lat="46.66441" lon="-1.75672">
        <ele>17</ele>
        <time>2013-07-23T12:26:42Z</time>
      </trkpt>
      <trkpt lat="46.664" lon="-1.75603">
        <ele>18</ele>
        <time>2013-07-23T12:27:18Z</time>
      </trkpt>
      <trkpt lat="46.66323" lon="-1.75545">
        <ele>14</ele>
        <time>2013-07-23T12:27:48Z</time>
      </trkpt>
      <trkpt lat="46.66177" lon="-1.75509">
        <ele>27</ele>
        <time>2013-07-23T12:28:49Z</time>
      </trkpt>
      <trkpt lat="46.66072" lon="-1.75457">
        <ele>22</ele>
        <time>2013-07-23T12:29:8Z</time>
      </trkpt>
      <trkpt lat="46.66046" lon="-1.75427">
        <ele>23</ele>
        <time>2013-07-23T12:29:18Z</time>
      </trkpt>
      <trkpt lat="46.6602" lon="-1.75371">
        <ele>23</ele>
        <time>2013-07-23T12:29:37Z</time>
      </trkpt>
      <trkpt lat="46.66029" lon="-1.7529">
        <ele>21</ele>
        <time>2013-07-23T12:31:6Z</time>
      </trkpt>
      <trkpt lat="46.66044" lon="-1.7529">
        <ele>21</ele>
        <time>2013-07-23T12:32:22Z</time>
      </trkpt>
      <trkpt lat="46.66173" lon="-1.75329">
        <ele>21</ele>
        <time>2013-07-23T12:33:7Z</time>
      </trkpt>
      <trkpt lat="46.66188" lon="-1.75359">
        <ele>26</ele>
        <time>2013-07-23T12:33:25Z</time>
      </trkpt>
      <trkpt lat="46.66243" lon="-1.75341">
        <ele>20</ele>
        <time>2013-07-23T12:33:46Z</time>
      </trkpt>
      <trkpt lat="46.66366" lon="-1.75367">
        <ele>18</ele>
        <time>2013-07-23T12:35:14Z</time>
      </trkpt>
      <trkpt lat="46.66391" lon="-1.75363">
        <ele>14</ele>
        <time>2013-07-23T12:35:25Z</time>
      </trkpt>
      <trkpt lat="46.66398" lon="-1.75369">
        <ele>13</ele>
        <time>2013-07-23T12:35:40Z</time>
      </trkpt>
      <trkpt lat="46.66479" lon="-1.75305">
        <ele>13</ele>
        <time>2013-07-23T12:36:2Z</time>
      </trkpt>
      <trkpt lat="46.66542" lon="-1.75277">
        <ele>11</ele>
        <time>2013-07-23T12:36:26Z</time>
      </trkpt>
      <trkpt lat="46.66589" lon="-1.75226">
        <ele>13</ele>
        <time>2013-07-23T12:36:46Z</time>
      </trkpt>
      <trkpt lat="46.66608" lon="-1.7509">
        <ele>8</ele>
        <time>2013-07-23T12:37:4Z</time>
      </trkpt>
      <trkpt lat="46.66587" lon="-1.74985">
        <ele>11</ele>
        <time>2013-07-23T12:37:22Z</time>
      </trkpt>
      <trkpt lat="46.66522" lon="-1.74854">
        <ele>11</ele>
        <time>2013-07-23T12:37:51Z</time>
      </trkpt>
      <trkpt lat="46.6643" lon="-1.74728">
        <ele>9</ele>
        <time>2013-07-23T12:38:25Z</time>
      </trkpt>
      <trkpt lat="46.66406" lon="-1.74663">
        <ele>12</ele>
        <time>2013-07-23T12:39:5Z</time>
      </trkpt>
      <trkpt lat="46.66428" lon="-1.74629">
        <ele>12</ele>
        <time>2013-07-23T12:39:19Z</time>
      </trkpt>
      <trkpt lat="46.66595" lon="-1.74526">
        <ele>18</ele>
        <time>2013-07-23T12:40:48Z</time>
      </trkpt>
      <trkpt lat="46.66617" lon="-1.7452">
        <ele>17</ele>
        <time>2013-07-23T12:40:53Z</time>
      </trkpt>
      <trkpt lat="46.66653" lon="-1.74539">
        <ele>15</ele>
        <time>2013-07-23T12:41:0Z</time>
      </trkpt>
      <trkpt lat="46.66687" lon="-1.7461">
        <ele>15</ele>
        <time>2013-07-23T12:41:19Z</time>
      </trkpt>
      <trkpt lat="46.66724" lon="-1.74657">
        <ele>15</ele>
        <time>2013-07-23T12:41:34Z</time>
      </trkpt>
      <trkpt lat="46.6676" lon="-1.74676">
        <ele>13</ele>
        <time>2013-07-23T12:41:46Z</time>
      </trkpt>
      <trkpt lat="46.66769" lon="-1.74625">
        <ele>5</ele>
        <time>2013-07-23T12:42:11Z</time>
      </trkpt>
      <trkpt lat="46.66784" lon="-1.74605">
        <ele>1</ele>
        <time>2013-07-23T12:42:26Z</time>
      </trkpt>
      <trkpt lat="46.66891" lon="-1.74532">
        <ele>-8</ele>
        <time>2013-07-23T12:43:26Z</time>
      </trkpt>
      <trkpt lat="46.66928" lon="-1.7449">
        <ele>-16</ele>
        <time>2013-07-23T12:43:54Z</time>
      </trkpt>
      <trkpt lat="46.66958" lon="-1.74438">
        <ele>-26</ele>
        <time>2013-07-23T12:44:19Z</time>
      </trkpt>
      <trkpt lat="46.66999" lon="-1.74419">
        <ele>-39</ele>
        <time>2013-07-23T12:44:48Z</time>
      </trkpt>
      <trkpt lat="46.67057" lon="-1.74412">
        <ele>-23</ele>
        <time>2013-07-23T12:45:16Z</time>
      </trkpt>
      <trkpt lat="46.67106" lon="-1.74384">
        <ele>47.3</ele>
        <time>2013-07-23T12:45:43Z</time>
      </trkpt>
      <trkpt lat="46.67127" lon="-1.74357">
        <ele>6</ele>
        <time>2013-07-23T12:45:56Z</time>
      </trkpt>
      <trkpt lat="46.67155" lon="-1.74305">
        <ele>29</ele>
        <time>2013-07-23T12:46:35Z</time>
      </trkpt>
      <trkpt lat="46.67153" lon="-1.74243">
        <ele>35</ele>
        <time>2013-07-23T12:46:59Z</time>
      </trkpt>
      <trkpt lat="46.67166" lon="-1.74148">
        <ele>37</ele>
        <time>2013-07-23T12:47:31Z</time>
      </trkpt>
      <trkpt lat="46.67166" lon="-1.74086">
        <ele>41</ele>
        <time>2013-07-23T12:47:49Z</time>
      </trkpt>
      <trkpt lat="46.67202" lon="-1.73949">
        <ele>40</ele>
        <time>2013-07-23T12:48:37Z</time>
      </trkpt>
      <trkpt lat="46.67245" lon="-1.7388">
        <ele>43</ele>
        <time>2013-07-23T12:48:58Z</time>
      </trkpt>
      <trkpt lat="46.67282" lon="-1.73805">
        <ele>44</ele>
        <time>2013-07-23T12:49:20Z</time>
      </trkpt>
      <trkpt lat="46.67303" lon="-1.73713">
        <ele>43</ele>
        <time>2013-07-23T12:49:37Z</time>
      </trkpt>
      <trkpt lat="46.67299" lon="-1.73608">
        <ele>38</ele>
        <time>2013-07-23T12:49:48Z</time>
      </trkpt>
      <trkpt lat="46.67273" lon="-1.73472">
        <ele>36</ele>
        <time>2013-07-23T12:50:15Z</time>
      </trkpt>
      <trkpt lat="46.67233" lon="-1.734">
        <ele>37</ele>
        <time>2013-07-23T12:50:46Z</time>
      </trkpt>
      <trkpt lat="46.67087" lon="-1.73243">
        <ele>36</ele>
        <time>2013-07-23T12:51:16Z</time>
      </trkpt>
      <trkpt lat="46.67027" lon="-1.73187">
        <ele>34</ele>
        <time>2013-07-23T12:51:28Z</time>
      </trkpt>
      <trkpt lat="46.66941" lon="-1.73136">
        <ele>29</ele>
        <time>2013-07-23T12:51:40Z</time>
      </trkpt>
      <trkpt lat="46.66778" lon="-1.73103">
        <ele>18</ele>
        <time>2013-07-23T12:51:58Z</time>
      </trkpt>
      <trkpt lat="46.66786" lon="-1.73112">
        <ele>16</ele>
        <time>2013-07-23T12:52:10Z</time>
      </trkpt>
      <trkpt lat="46.6678" lon="-1.73114">
        <ele>15</ele>
        <time>2013-07-23T12:56:31Z</time>
      </trkpt>
      <trkpt lat="46.6679" lon="-1.73129">
        <ele>14</ele>
        <time>2013-07-23T12:56:41Z</time>
      </trkpt>
      <trkpt lat="46.66806" lon="-1.73204">
        <ele>10</ele>
        <time>2013-07-23T12:56:59Z</time>
      </trkpt>
      <trkpt lat="46.66838" lon="-1.73266">
        <ele>6</ele>
        <time>2013-07-23T12:57:16Z</time>
      </trkpt>
      <trkpt lat="46.66889" lon="-1.73318">
        <ele>2</ele>
        <time>2013-07-23T12:57:36Z</time>
      </trkpt>
      <trkpt lat="46.66898" lon="-1.73316">
        <ele>1</ele>
        <time>2013-07-23T12:57:40Z</time>
      </trkpt>
      <trkpt lat="46.66992" lon="-1.73389">
        <ele>-8</ele>
        <time>2013-07-23T12:58:25Z</time>
      </trkpt>
      <trkpt lat="46.67033" lon="-1.73436">
        <ele>-8</ele>
        <time>2013-07-23T12:58:45Z</time>
      </trkpt>
      <trkpt lat="46.67016" lon="-1.73528">
        <ele>-1</ele>
        <time>2013-07-23T12:59:8Z</time>
      </trkpt>
      <trkpt lat="46.67057" lon="-1.73586">
        <ele>4</ele>
        <time>2013-07-23T12:59:29Z</time>
      </trkpt>
      <trkpt lat="46.67057" lon="-1.73629">
        <ele>5</ele>
        <time>2013-07-23T12:59:39Z</time>
      </trkpt>
      <trkpt lat="46.67018" lon="-1.737">
        <ele>6</ele>
        <time>2013-07-23T13:00:2Z</time>
      </trkpt>
      <trkpt lat="46.66977" lon="-1.73739">
        <ele>6</ele>
        <time>2013-07-23T13:00:17Z</time>
      </trkpt>
      <trkpt lat="46.66793" lon="-1.73831">
        <ele>16</ele>
        <time>2013-07-23T13:01:19Z</time>
      </trkpt>
      <trkpt lat="46.66739" lon="-1.73882">
        <ele>18</ele>
        <time>2013-07-23T13:01:42Z</time>
      </trkpt>
      <trkpt lat="46.66657" lon="-1.74007">
        <ele>14</ele>
        <time>2013-07-23T13:02:12Z</time>
      </trkpt>
      <trkpt lat="46.66612" lon="-1.7405">
        <ele>12</ele>
        <time>2013-07-23T13:02:27Z</time>
      </trkpt>
      <trkpt lat="46.66548" lon="-1.74193">
        <ele>10</ele>
        <time>2013-07-23T13:02:53Z</time>
      </trkpt>
      <trkpt lat="46.66529" lon="-1.74217">
        <ele>10</ele>
        <time>2013-07-23T13:02:59Z</time>
      </trkpt>
      <trkpt lat="46.66494" lon="-1.74251">
        <ele>9</ele>
        <time>2013-07-23T13:03:12Z</time>
      </trkpt>
      <trkpt lat="46.6646" lon="-1.74262">
        <ele>9</ele>
        <time>2013-07-23T13:03:28Z</time>
      </trkpt>
      <trkpt lat="46.66421" lon="-1.74262">
        <ele>10</ele>
        <time>2013-07-23T13:03:41Z</time>
      </trkpt>
      <trkpt lat="46.66394" lon="-1.7432">
        <ele>9</ele>
        <time>2013-07-23T13:03:55Z</time>
      </trkpt>
      <trkpt lat="46.66357" lon="-1.74346">
        <ele>10</ele>
        <time>2013-07-23T13:04:6Z</time>
      </trkpt>
      <trkpt lat="46.66312" lon="-1.74369">
        <ele>10</ele>
        <time>2013-07-23T13:04:20Z</time>
      </trkpt>
      <trkpt lat="46.66237" lon="-1.74438">
        <ele>15</ele>
        <time>2013-07-23T13:04:50Z</time>
      </trkpt>
      <trkpt lat="46.66188" lon="-1.74567">
        <ele>24</ele>
        <time>2013-07-23T13:05:31Z</time>
      </trkpt>
      <trkpt lat="46.66179" lon="-1.7462">
        <ele>26</ele>
        <time>2013-07-23T13:05:43Z</time>
      </trkpt>
      <trkpt lat="46.66185" lon="-1.74687">
        <ele>19</ele>
        <time>2013-07-23T13:17:49Z</time>
      </trkpt>
      <trkpt lat="46.66194" lon="-1.74704">
        <ele>18</ele>
        <time>2013-07-23T13:17:55Z</time>
      </trkpt>
      <trkpt lat="46.66235" lon="-1.74751">
        <ele>15</ele>
        <time>2013-07-23T13:18:16Z</time>
      </trkpt>
      <trkpt lat="46.66243" lon="-1.74792">
        <ele>14</ele>
        <time>2013-07-23T13:18:27Z</time>
      </trkpt>
      <trkpt lat="46.66263" lon="-1.7479">
        <ele>14</ele>
        <time>2013-07-23T13:18:35Z</time>
      </trkpt>
      <trkpt lat="46.66252" lon="-1.74788">
        <ele>12</ele>
        <time>2013-07-23T13:18:44Z</time>
      </trkpt>
      <trkpt lat="46.66192" lon="-1.74833">
        <ele>11</ele>
        <time>2013-07-23T13:19:10Z</time>
      </trkpt>
      <trkpt lat="46.6617" lon="-1.7482">
        <ele>13</ele>
        <time>2013-07-23T13:19:28Z</time>
      </trkpt>
      <trkpt lat="46.66196" lon="-1.74856">
        <ele>17</ele>
        <time>2013-07-23T13:21:15Z</time>
      </trkpt>
      <trkpt lat="46.66218" lon="-1.7494">
        <ele>16</ele>
        <time>2013-07-23T13:21:39Z</time>
      </trkpt>
      <trkpt lat="46.66271" lon="-1.74966">
        <ele>12</ele>
        <time>2013-07-23T13:21:57Z</time>
      </trkpt>
      <trkpt lat="46.66314" lon="-1.74974">
        <ele>15</ele>
        <time>2013-07-23T13:22:20Z</time>
      </trkpt>
      <trkpt lat="46.66252" lon="-1.74966">
        <ele>11</ele>
        <time>2013-07-23T13:22:47Z</time>
      </trkpt>
      <trkpt lat="46.66226" lon="-1.75056">
        <ele>4</ele>
        <time>2013-07-23T13:23:13Z</time>
      </trkpt>
      <trkpt lat="46.66188" lon="-1.75071">
        <ele>4</ele>
        <time>2013-07-23T13:23:28Z</time>
      </trkpt>
      <trkpt lat="46.66164" lon="-1.75062">
        <ele>7</ele>
        <time>2013-07-23T13:23:37Z</time>
      </trkpt>
      <trkpt lat="46.66027" lon="-1.75294">
        <ele>12</ele>
        <time>2013-07-23T13:24:50Z</time>
      </trkpt>
      <trkpt lat="46.66035" lon="-1.75322">
        <ele>13</ele>
        <time>2013-07-23T13:25:2Z</time>
      </trkpt>
      <trkpt lat="46.66052" lon="-1.75344">
        <ele>16</ele>
        <time>2013-07-23T13:25:17Z</time>
      </trkpt>
      <trkpt lat="46.66106" lon="-1.75354">
        <ele>25</ele>
        <time>2013-07-23T13:25:48Z</time>
      </trkpt>
      <trkpt lat="46.66117" lon="-1.75318">
        <ele>18</ele>
        <time>2013-07-23T13:26:0Z</time>
      </trkpt>
      <trkpt lat="46.66155" lon="-1.75324">
        <ele>15</ele>
        <time>2013-07-23T13:26:49Z</time>
      </trkpt>
      <trkpt lat="46.66194" lon="-1.75369">
        <ele>21</ele>
        <time>2013-07-23T13:27:47Z</time>
      </trkpt>
      <trkpt lat="46.66228" lon="-1.75346">
        <ele>18</ele>
        <time>2013-07-23T13:27:56Z</time>
      </trkpt>
      <trkpt lat="46.66254" lon="-1.75348">
        <ele>17</ele>
        <time>2013-07-23T13:28:6Z</time>
      </trkpt>
      <trkpt lat="46.66284" lon="-1.75363">
        <ele>16</ele>
        <time>2013-07-23T13:28:24Z</time>
      </trkpt>
      <trkpt lat="46.66299" lon="-1.75354">
        <ele>15</ele>
        <time>2013-07-23T13:28:27Z</time>
      </trkpt>
      <trkpt lat="46.66325" lon="-1.75356">
        <ele>13</ele>
        <time>2013-07-23T13:28:31Z</time>
      </trkpt>
      <trkpt lat="46.66359" lon="-1.75369">
        <ele>12</ele>
        <time>2013-07-23T13:28:40Z</time>
      </trkpt>
      <trkpt lat="46.66421" lon="-1.75359">
        <ele>6</ele>
        <time>2013-07-23T13:29:5Z</time>
      </trkpt>
      <trkpt lat="46.66454" lon="-1.75344">
        <ele>20</ele>
        <time>2013-07-23T13:30:26Z</time>
      </trkpt>
      <trkpt lat="46.66402" lon="-1.75367">
        <ele>12</ele>
        <time>2013-07-23T13:31:33Z</time>
      </trkpt>
      <trkpt lat="46.66443" lon="-1.7535">
        <ele>16</ele>
        <time>2013-07-23T13:32:53Z</time>
      </trkpt>
      <trkpt lat="46.66464" lon="-1.75352">
        <ele>20</ele>
        <time>2013-07-23T13:33:24Z</time>
      </trkpt>
      <trkpt lat="46.66477" lon="-1.75346">
        <ele>23</ele>
        <time>2013-07-23T13:33:45Z</time>
      </trkpt>
      <trkpt lat="46.66466" lon="-1.75359">
        <ele>24</ele>
        <time>2013-07-23T13:34:9Z</time>
      </trkpt>
      <trkpt lat="46.66466" lon="-1.75365">
        <ele>24</ele>
        <time>2013-07-23T13:34:33Z</time>
      </trkpt>
      <trkpt lat="46.66481" lon="-1.75367">
        <ele>29</ele>
        <time>2013-07-23T13:36:1Z</time>
      </trkpt>
      <trkpt lat="46.66477" lon="-1.75369">
        <ele>31</ele>
        <time>2013-07-23T13:36:20Z</time>
      </trkpt>
      <trkpt lat="46.66479" lon="-1.7538">
        <ele>33</ele>
        <time>2013-07-23T13:36:45Z</time>
      </trkpt>
      <trkpt lat="46.66533" lon="-1.75339">
        <ele>39</ele>
        <time>2013-07-23T13:38:21Z</time>
      </trkpt>
      <trkpt lat="46.66576" lon="-1.75322">
        <ele>43</ele>
        <time>2013-07-23T13:38:36Z</time>
      </trkpt>
      <trkpt lat="46.66625" lon="-1.75279">
        <ele>43</ele>
        <time>2013-07-23T13:38:52Z</time>
      </trkpt>
      <trkpt lat="46.6666" lon="-1.75157">
        <ele>42</ele>
        <time>2013-07-23T13:39:24Z</time>
      </trkpt>
      <trkpt lat="46.6666" lon="-1.75125">
        <ele>40</ele>
        <time>2013-07-23T13:39:31Z</time>
      </trkpt>
      <trkpt lat="46.66642" lon="-1.75035">
        <ele>36</ele>
        <time>2013-07-23T13:39:46Z</time>
      </trkpt>
      <trkpt lat="46.66578" lon="-1.74796">
        <ele>34</ele>
        <time>2013-07-23T13:40:25Z</time>
      </trkpt>
      <trkpt lat="46.6652" lon="-1.74689">
        <ele>29</ele>
        <time>2013-07-23T13:40:44Z</time>
      </trkpt>
      <trkpt lat="46.66503" lon="-1.74627">
        <ele>27</ele>
        <time>2013-07-23T13:40:50Z</time>
      </trkpt>
      <trkpt lat="46.66481" lon="-1.74614">
        <ele>25</ele>
        <time>2013-07-23T13:40:56Z</time>
      </trkpt>
      <trkpt lat="46.66415" lon="-1.7465">
        <ele>21</ele>
        <time>2013-07-23T13:41:6Z</time>
      </trkpt>
      <trkpt lat="46.664" lon="-1.7464">
        <ele>19</ele>
        <time>2013-07-23T13:41:47Z</time>
      </trkpt>
      <trkpt lat="46.66385" lon="-1.74539">
        <ele>16</ele>
        <time>2013-07-23T13:42:2Z</time>
      </trkpt>
      <trkpt lat="46.66402" lon="-1.74515">
        <ele>14</ele>
        <time>2013-07-23T13:42:10Z</time>
      </trkpt>
      <trkpt lat="46.66475" lon="-1.74509">
        <ele>9</ele>
        <time>2013-07-23T13:42:29Z</time>
      </trkpt>
      <trkpt lat="46.66512" lon="-1.7449">
        <ele>10</ele>
        <time>2013-07-23T13:42:40Z</time>
      </trkpt>
      <trkpt lat="46.66546" lon="-1.74444">
        <ele>13</ele>
        <time>2013-07-23T13:42:54Z</time>
      </trkpt>
      <trkpt lat="46.66565" lon="-1.74393">
        <ele>16</ele>
        <time>2013-07-23T13:43:6Z</time>
      </trkpt>
      <trkpt lat="46.6658" lon="-1.74374">
        <ele>17</ele>
        <time>2013-07-23T13:43:18Z</time>
      </trkpt>
      <trkpt lat="46.66617" lon="-1.74346">
        <ele>18</ele>
        <time>2013-07-23T13:43:34Z</time>
      </trkpt>
      <trkpt lat="46.66649" lon="-1.74247">
        <ele>16</ele>
        <time>2013-07-23T13:43:56Z</time>
      </trkpt>
      <trkpt lat="46.66681" lon="-1.74193">
        <ele>17</ele>
        <time>2013-07-23T13:44:10Z</time>
      </trkpt>
      <trkpt lat="46.66696" lon="-1.74142">
        <ele>20</ele>
        <time>2013-07-23T13:44:18Z</time>
      </trkpt>
      <trkpt lat="46.66735" lon="-1.74099">
        <ele>23</ele>
        <time>2013-07-23T13:44:35Z</time>
      </trkpt>
      <trkpt lat="46.66756" lon="-1.74056">
        <ele>23</ele>
        <time>2013-07-23T13:44:46Z</time>
      </trkpt>
      <trkpt lat="46.66754" lon="-1.74063">
        <ele>23</ele>
        <time>2013-07-23T13:44:58Z</time>
      </trkpt>
      <trkpt lat="46.6676" lon="-1.74075">
        <ele>22</ele>
        <time>2013-07-23T13:45:6Z</time>
      </trkpt>
      <trkpt lat="46.66775" lon="-1.74063">
        <ele>22</ele>
        <time>2013-07-23T13:45:16Z</time>
      </trkpt>
      <trkpt lat="46.6678" lon="-1.74045">
        <ele>21</ele>
        <time>2013-07-23T13:45:20Z</time>
      </trkpt>
      <trkpt lat="46.66797" lon="-1.74024">
        <ele>20</ele>
        <time>2013-07-23T13:45:24Z</time>
      </trkpt>
      <trkpt lat="46.66893" lon="-1.73947">
        <ele>17</ele>
        <time>2013-07-23T13:45:49Z</time>
      </trkpt>
      <trkpt lat="46.66917" lon="-1.73936">
        <ele>15</ele>
        <time>2013-07-23T13:45:54Z</time>
      </trkpt>
      <trkpt lat="46.66956" lon="-1.73932">
        <ele>13</ele>
        <time>2013-07-23T13:46:6Z</time>
      </trkpt>
      <trkpt lat="46.67035" lon="-1.73899">
        <ele>11</ele>
        <time>2013-07-23T13:46:30Z</time>
      </trkpt>
      <trkpt lat="46.67132" lon="-1.73824">
        <ele>10</ele>
        <time>2013-07-23T13:47:4Z</time>
      </trkpt>
      <trkpt lat="46.67168" lon="-1.73771">
        <ele>8</ele>
        <time>2013-07-23T13:47:21Z</time>
      </trkpt>
      <trkpt lat="46.67205" lon="-1.73636">
        <ele>10</ele>
        <time>2013-07-23T13:48:2Z</time>
      </trkpt>
      <trkpt lat="46.67202" lon="-1.73605">
        <ele>12</ele>
        <time>2013-07-23T13:49:0Z</time>
      </trkpt>
      <trkpt lat="46.67177" lon="-1.7356">
        <ele>12</ele>
        <time>2013-07-23T13:49:18Z</time>
      </trkpt>
      <trkpt lat="46.67127" lon="-1.73509">
        <ele>14</ele>
        <time>2013-07-23T13:49:32Z</time>
      </trkpt>
      <trkpt lat="46.67078" lon="-1.7347">
        <ele>16</ele>
        <time>2013-07-23T13:49:48Z</time>
      </trkpt>
      <trkpt lat="46.67035" lon="-1.73457">
        <ele>18</ele>
        <time>2013-07-23T13:50:0Z</time>
      </trkpt>
      <trkpt lat="46.66964" lon="-1.73387">
        <ele>21</ele>
        <time>2013-07-23T13:50:27Z</time>
      </trkpt>
      <trkpt lat="46.66887" lon="-1.73331">
        <ele>25</ele>
        <time>2013-07-23T13:50:57Z</time>
      </trkpt>
      <trkpt lat="46.6681" lon="-1.73232">
        <ele>27</ele>
        <time>2013-07-23T13:51:23Z</time>
      </trkpt>
      <trkpt lat="46.66778" lon="-1.73112">
        <ele>28</ele>
        <time>2013-07-23T13:51:56Z</time>
      </trkpt>
      <trkpt lat="46.66863" lon="-1.73121">
        <ele>38</ele>
        <time>2013-07-23T13:52:43Z</time>
      </trkpt>
      <trkpt lat="46.66956" lon="-1.73138">
        <ele>52</ele>
        <time>2013-07-23T13:53:32Z</time>
      </trkpt>
      <trkpt lat="46.66984" lon="-1.73151">
        <ele>53</ele>
        <time>2013-07-23T13:53:48Z</time>
      </trkpt>
      <trkpt lat="46.67048" lon="-1.73198">
        <ele>51</ele>
        <time>2013-07-23T13:54:25Z</time>
      </trkpt>
      <trkpt lat="46.67181" lon="-1.73337">
        <ele>47</ele>
        <time>2013-07-23T13:55:47Z</time>
      </trkpt>
      <trkpt lat="46.67273" lon="-1.73462">
        <ele>54</ele>
        <time>2013-07-23T13:57:21Z</time>
      </trkpt>
      <trkpt lat="46.67295" lon="-1.73595">
        <ele>53</ele>
        <time>2013-07-23T14:00:35Z</time>
      </trkpt>
      <trkpt lat="46.67301" lon="-1.73676">
        <ele>57</ele>
        <time>2013-07-23T14:00:52Z</time>
      </trkpt>
      <trkpt lat="46.67275" lon="-1.73811">
        <ele>61</ele>
        <time>2013-07-23T14:01:26Z</time>
      </trkpt>
      <trkpt lat="46.67325" lon="-1.73814">
        <ele>61</ele>
        <time>2013-07-23T14:01:42Z</time>
      </trkpt>
      <trkpt lat="46.67501" lon="-1.73891">
        <ele>63</ele>
        <time>2013-07-23T14:02:38Z</time>
      </trkpt>
      <trkpt lat="46.67574" lon="-1.73932">
        <ele>62</ele>
        <time>2013-07-23T14:02:59Z</time>
      </trkpt>
      <trkpt lat="46.6758" lon="-1.73977">
        <ele>60</ele>
        <time>2013-07-23T14:03:12Z</time>
      </trkpt>
      <trkpt lat="46.67561" lon="-1.74063">
        <ele>59</ele>
        <time>2013-07-23T14:03:27Z</time>
      </trkpt>
      <trkpt lat="46.67552" lon="-1.74221">
        <ele>59</ele>
        <time>2013-07-23T14:03:51Z</time>
      </trkpt>
      <trkpt lat="46.67599" lon="-1.74238">
        <ele>61</ele>
        <time>2013-07-23T14:04:3Z</time>
      </trkpt>
      <trkpt lat="46.67662" lon="-1.74247">
        <ele>61</ele>
        <time>2013-07-23T14:04:16Z</time>
      </trkpt>
      <trkpt lat="46.67732" lon="-1.74243">
        <ele>63</ele>
        <time>2013-07-23T14:04:29Z</time>
      </trkpt>
      <trkpt lat="46.6775" lon="-1.74228">
        <ele>60</ele>
        <time>2013-07-23T14:04:34Z</time>
      </trkpt>
      <trkpt lat="46.67788" lon="-1.74131">
        <ele>57</ele>
        <time>2013-07-23T14:04:59Z</time>
      </trkpt>
      <trkpt lat="46.67816" lon="-1.74146">
        <ele>59</ele>
        <time>2013-07-23T14:05:23Z</time>
      </trkpt>
      <trkpt lat="46.67793" lon="-1.74127">
        <ele>58</ele>
        <time>2013-07-23T14:05:36Z</time>
      </trkpt>
      <trkpt lat="46.6778" lon="-1.74138">
        <ele>58</ele>
        <time>2013-07-23T14:05:43Z</time>
      </trkpt>
      <trkpt lat="46.67748" lon="-1.74213">
        <ele>55</ele>
        <time>2013-07-23T14:06:3Z</time>
      </trkpt>
      <trkpt lat="46.67722" lon="-1.74247">
        <ele>53</ele>
        <time>2013-07-23T14:06:17Z</time>
      </trkpt>
      <trkpt lat="46.67664" lon="-1.74249">
        <ele>55</ele>
        <time>2013-07-23T14:06:37Z</time>
      </trkpt>
      <trkpt lat="46.67591" lon="-1.74241">
        <ele>53</ele>
        <time>2013-07-23T14:06:58Z</time>
      </trkpt>
      <trkpt lat="46.67561" lon="-1.74228">
        <ele>53</ele>
        <time>2013-07-23T14:07:6Z</time>
      </trkpt>
      <trkpt lat="46.67552" lon="-1.74245">
        <ele>54</ele>
        <time>2013-07-23T14:07:11Z</time>
      </trkpt>
      <trkpt lat="46.67552" lon="-1.74374">
        <ele>58</ele>
        <time>2013-07-23T14:07:33Z</time>
      </trkpt>
      <trkpt lat="46.67542" lon="-1.74494">
        <ele>60</ele>
        <time>2013-07-23T14:07:53Z</time>
      </trkpt>
      <trkpt lat="46.67657" lon="-1.74507">
        <ele>55</ele>
        <time>2013-07-23T14:08:21Z</time>
      </trkpt>
      <trkpt lat="46.67741" lon="-1.7453">
        <ele>55</ele>
        <time>2013-07-23T14:08:38Z</time>
      </trkpt>
      <trkpt lat="46.67829" lon="-1.74517">
        <ele>55</ele>
        <time>2013-07-23T14:08:54Z</time>
      </trkpt>
      <trkpt lat="46.67904" lon="-1.74483">
        <ele>54</ele>
        <time>2013-07-23T14:09:8Z</time>
      </trkpt>
      <trkpt lat="46.67943" lon="-1.74479">
        <ele>54</ele>
        <time>2013-07-23T14:09:15Z</time>
      </trkpt>
      <trkpt lat="46.68009" lon="-1.74498">
        <ele>54</ele>
        <time>2013-07-23T14:09:30Z</time>
      </trkpt>
      <trkpt lat="46.68014" lon="-1.74599">
        <ele>55</ele>
        <time>2013-07-23T14:09:48Z</time>
      </trkpt>
      <trkpt lat="46.68031" lon="-1.74732">
        <ele>56</ele>
        <time>2013-07-23T14:10:12Z</time>
      </trkpt>
      <trkpt lat="46.68065" lon="-1.74902">
        <ele>60</ele>
        <time>2013-07-23T14:10:50Z</time>
      </trkpt>
      <trkpt lat="46.68072" lon="-1.75054">
        <ele>61</ele>
        <time>2013-07-23T14:11:23Z</time>
      </trkpt>
      <trkpt lat="46.68046" lon="-1.75266">
        <ele>58</ele>
        <time>2013-07-23T14:12:8Z</time>
      </trkpt>
      <trkpt lat="46.6802" lon="-1.75423">
        <ele>55</ele>
        <time>2013-07-23T14:12:40Z</time>
      </trkpt>
      <trkpt lat="46.68014" lon="-1.75601">
        <ele>56</ele>
        <time>2013-07-23T14:15:51Z</time>
      </trkpt>
      <trkpt lat="46.67999" lon="-1.75668">
        <ele>57</ele>
        <time>2013-07-23T14:16:5Z</time>
      </trkpt>
      <trkpt lat="46.68003" lon="-1.7568">
        <ele>57</ele>
        <time>2013-07-23T14:16:9Z</time>
      </trkpt>
      <trkpt lat="46.68082" lon="-1.75691">
        <ele>58</ele>
        <time>2013-07-23T14:16:37Z</time>
      </trkpt>
      <trkpt lat="46.68157" lon="-1.75713">
        <ele>56</ele>
        <time>2013-07-23T14:16:55Z</time>
      </trkpt>
      <trkpt lat="46.68228" lon="-1.75745">
        <ele>55</ele>
        <time>2013-07-23T14:17:13Z</time>
      </trkpt>
      <trkpt lat="46.68327" lon="-1.75809">
        <ele>58</ele>
        <time>2013-07-23T14:17:35Z</time>
      </trkpt>
      <trkpt lat="46.6835" lon="-1.75811">
        <ele>57</ele>
        <time>2013-07-23T14:17:40Z</time>
      </trkpt>
      <trkpt lat="46.68432" lon="-1.75786">
        <ele>54</ele>
        <time>2013-07-23T14:17:58Z</time>
      </trkpt>
      <trkpt lat="46.68526" lon="-1.75741">
        <ele>51</ele>
        <time>2013-07-23T14:18:18Z</time>
      </trkpt>
      <trkpt lat="46.6861" lon="-1.7571">
        <ele>51</ele>
        <time>2013-07-23T14:18:37Z</time>
      </trkpt>
      <trkpt lat="46.68696" lon="-1.75693">
        <ele>50</ele>
        <time>2013-07-23T14:18:53Z</time>
      </trkpt>
      <trkpt lat="46.68769" lon="-1.7564">
        <ele>48</ele>
        <time>2013-07-23T14:19:7Z</time>
      </trkpt>
      <trkpt lat="46.6885" lon="-1.75595">
        <ele>48</ele>
        <time>2013-07-23T14:19:21Z</time>
      </trkpt>
      <trkpt lat="46.68872" lon="-1.7559">
        <ele>48</ele>
        <time>2013-07-23T14:19:24Z</time>
      </trkpt>
      <trkpt lat="46.69016" lon="-1.75629">
        <ele>51</ele>
        <time>2013-07-23T14:19:48Z</time>
      </trkpt>
      <trkpt lat="46.69046" lon="-1.75625">
        <ele>48</ele>
        <time>2013-07-23T14:19:52Z</time>
      </trkpt>
      <trkpt lat="46.69125" lon="-1.75646">
        <ele>42</ele>
        <time>2013-07-23T14:20:1Z</time>
      </trkpt>
      <trkpt lat="46.69164" lon="-1.75687">
        <ele>40</ele>
        <time>2013-07-23T14:20:7Z</time>
      </trkpt>
      <trkpt lat="46.69273" lon="-1.75869">
        <ele>37</ele>
        <time>2013-07-23T14:20:36Z</time>
      </trkpt>
      <trkpt lat="46.69307" lon="-1.75901">
        <ele>36</ele>
        <time>2013-07-23T14:20:44Z</time>
      </trkpt>
    </trkseg>
  </trk>
</gpx>